sensor_id;sensor_type;location;lat;lon;timestamp;pressure;altitude;pressure_sealevel;temperature;humidity
71565;BME280;59397;50.952;14.502;2024-01-30T00:40:35;987.16;;;0.29;100.00
71565;BME280;59397;50.952;14.502;2024-01-30T01:00:11;986.97;;;0.15;100.00
71565;BME280;59397;50.952;14.502;2024-01-30T01:19:44;987.15;;;0.56;100.00
71565;BME280;59397;50.952;14.502;2024-01-30T01:39:14;987.19;;;0.35;100.00
71565;BME280;59397;50.952;14.502;2024-01-30T01:58:52;986.68;;;0.42;100.00
71565;BME280;59397;50.952;14.502;2024-01-30T02:18:23;986.93;;;0.73;100.00
71565;BME280;59397;50.952;14.502;2024-01-30T02:37:59;986.92;;;0.56;100.00
71565;BME280;59397;50.952;14.502;2024-01-30T02:57:32;986.71;;;0.65;100.00
71565;BME280;59397;50.952;14.502;2024-01-30T03:17:06;986.80;;;0.65;100.00
71565;BME280;59397;50.952;14.502;2024-01-30T03:36:40;986.57;;;0.66;100.00
71565;BME280;59397;50.952;14.502;2024-01-30T03:56:11;986.56;;;0.57;100.00
71565;BME280;59397;50.952;14.502;2024-01-30T04:15:48;986.44;;;0.82;100.00
71565;BME280;59397;50.952;14.502;2024-01-30T04:35:20;986.31;;;0.68;100.00
71565;BME280;59397;50.952;14.502;2024-01-30T04:54:55;986.33;;;0.72;100.00
71565;BME280;59397;50.952;14.502;2024-01-30T05:14:29;986.42;;;0.97;100.00
71565;BME280;59397;50.952;14.502;2024-01-30T05:34:03;986.57;;;0.67;100.00
71565;BME280;59397;50.952;14.502;2024-01-30T05:53:35;986.51;;;0.70;100.00
71565;BME280;59397;50.952;14.502;2024-01-30T06:13:08;986.47;;;0.68;100.00
71565;BME280;59397;50.952;14.502;2024-01-30T06:32:43;986.45;;;0.38;100.00
71565;BME280;59397;50.952;14.502;2024-01-30T06:52:17;986.56;;;0.38;100.00
71565;BME280;59397;50.952;14.502;2024-01-30T07:11:51;986.62;;;0.61;100.00
71565;BME280;59397;50.952;14.502;2024-01-30T07:31:25;986.53;;;0.82;100.00
71565;BME280;59397;50.952;14.502;2024-01-30T07:51:00;986.57;;;1.12;100.00
71565;BME280;59397;50.952;14.502;2024-01-30T08:10:31;986.50;;;1.66;100.00
71565;BME280;59397;50.952;14.502;2024-01-30T08:30:07;986.41;;;1.84;100.00
71565;BME280;59397;50.952;14.502;2024-01-30T08:49:45;986.49;;;2.32;98.98
71565;BME280;59397;50.952;14.502;2024-01-30T09:09:16;986.54;;;2.45;98.23
71565;BME280;59397;50.952;14.502;2024-01-30T09:28:54;986.43;;;2.67;97.01
71565;BME280;59397;50.952;14.502;2024-01-30T09:48:27;986.53;;;2.93;95.74
71565;BME280;59397;50.952;14.502;2024-01-30T10:08:05;986.42;;;3.18;93.44
71565;BME280;59397;50.952;14.502;2024-01-30T10:27:39;986.12;;;3.29;91.24
71565;BME280;59397;50.952;14.502;2024-01-30T10:47:13;985.94;;;3.84;88.80
71565;BME280;59397;50.952;14.502;2024-01-30T11:06:47;985.92;;;3.89;88.11
71565;BME280;59397;50.952;14.502;2024-01-30T11:26:24;985.59;;;4.88;84.15
71565;BME280;59397;50.952;14.502;2024-01-30T11:45:57;985.32;;;4.61;84.17
71565;BME280;59397;50.952;14.502;2024-01-30T12:05:30;985.45;;;4.37;85.36
71565;BME280;59397;50.952;14.502;2024-01-30T12:25:04;985.17;;;4.47;86.21
71565;BME280;59397;50.952;14.502;2024-01-30T12:44:38;985.07;;;4.55;85.61
71565;BME280;59397;50.952;14.502;2024-01-30T13:04:15;985.08;;;4.49;86.31
71565;BME280;59397;50.952;14.502;2024-01-30T13:23:45;985.08;;;3.91;88.27
71565;BME280;59397;50.952;14.502;2024-01-30T13:43:17;985.13;;;3.27;93.86
71565;BME280;59397;50.952;14.502;2024-01-30T14:02:49;984.88;;;3.34;94.34
71565;BME280;59397;50.952;14.502;2024-01-30T14:22:24;985.01;;;2.79;93.61
71565;BME280;59397;50.952;14.502;2024-01-30T14:41:54;984.91;;;1.80;100.00
71565;BME280;59397;50.952;14.502;2024-01-30T15:01:22;984.92;;;0.98;100.00
71565;BME280;59397;50.952;14.502;2024-01-30T15:20:57;984.78;;;0.74;100.00
71565;BME280;59397;50.952;14.502;2024-01-30T15:40:30;984.95;;;0.49;100.00
71565;BME280;59397;50.952;14.502;2024-01-30T16:00:03;984.97;;;0.52;100.00
71565;BME280;59397;50.952;14.502;2024-01-30T16:19:33;985.02;;;0.60;100.00
71565;BME280;59397;50.952;14.502;2024-01-30T16:39:09;985.25;;;0.86;100.00
71565;BME280;59397;50.952;14.502;2024-01-30T16:58:42;985.42;;;0.73;100.00
71565;BME280;59397;50.952;14.502;2024-01-30T17:18:15;985.46;;;0.80;100.00
71565;BME280;59397;50.952;14.502;2024-01-30T17:37:51;985.30;;;0.51;100.00
71565;BME280;59397;50.952;14.502;2024-01-30T17:57:23;985.34;;;0.84;100.00
71565;BME280;59397;50.952;14.502;2024-01-30T18:17:00;985.34;;;1.11;100.00
71565;BME280;59397;50.952;14.502;2024-01-30T18:36:33;985.42;;;0.81;100.00
71565;BME280;59397;50.952;14.502;2024-01-30T18:56:06;985.38;;;0.63;100.00
71565;BME280;59397;50.952;14.502;2024-01-30T19:15:36;985.48;;;0.49;100.00
71565;BME280;59397;50.952;14.502;2024-01-30T19:35:09;985.57;;;0.66;100.00
71565;BME280;59397;50.952;14.502;2024-01-30T19:54:42;985.74;;;0.81;100.00
71565;BME280;59397;50.952;14.502;2024-01-30T20:14:14;985.74;;;0.39;100.00
71565;BME280;59397;50.952;14.502;2024-01-30T20:33:48;985.82;;;0.32;100.00
71565;BME280;59397;50.952;14.502;2024-01-30T20:53:17;985.79;;;0.42;100.00
71565;BME280;59397;50.952;14.502;2024-01-30T21:12:50;985.67;;;-0.18;100.00
71565;BME280;59397;50.952;14.502;2024-01-30T21:32:17;985.53;;;-0.31;100.00
71565;BME280;59397;50.952;14.502;2024-01-30T21:51:53;985.65;;;-0.59;100.00
71565;BME280;59397;50.952;14.502;2024-01-30T22:11:23;985.89;;;-0.20;100.00
71565;BME280;59397;50.952;14.502;2024-01-30T22:30:58;985.89;;;-0.15;100.00
71565;BME280;59397;50.952;14.502;2024-01-30T22:50:31;986.04;;;-0.22;100.00
71565;BME280;59397;50.952;14.502;2024-01-30T23:10:05;985.97;;;-0.38;100.00
71565;BME280;59397;50.952;14.502;2024-01-30T23:29:36;986.04;;;-0.43;100.00
71565;BME280;59397;50.952;14.502;2024-01-30T23:49:11;986.03;;;-0.56;100.00
